createdAt,value
2016-09-19T00:00:09.848Z,20.49
2016-09-19T00:01:20.134Z,20.53
2016-09-19T00:02:30.129Z,20.49
2016-09-19T00:03:40.427Z,20.48
2016-09-19T00:04:50.424Z,20.54
2016-09-19T00:06:00.720Z,20.57
2016-09-19T00:07:10.700Z,20.54
2016-09-19T00:08:20.674Z,20.57
2016-09-19T00:09:30.346Z,20.56
2016-09-19T00:10:40.624Z,20.56
2016-09-19T00:11:51.143Z,20.49
2016-09-19T00:13:01.429Z,20.44
2016-09-19T00:14:11.709Z,20.49
2016-09-19T00:15:21.684Z,20.51
2016-09-19T00:16:31.678Z,20.46
2016-09-19T00:17:41.669Z,20.51
2016-09-19T00:18:51.949Z,20.37
2016-09-19T00:20:02.227Z,20.37
2016-09-19T00:21:12.518Z,20.35
2016-09-19T00:22:22.194Z,20.4
2016-09-19T00:23:31.868Z,20.27
2016-09-19T00:24:42.158Z,20.25
2016-09-19T00:25:52.131Z,20.29
2016-09-19T00:27:02.112Z,20.34
2016-09-19T00:28:12.405Z,20.27
2016-09-19T00:29:22.072Z,20.29
2016-09-19T00:30:32.357Z,20.25
2016-09-19T00:31:42.022Z,20.27
2016-09-19T00:32:52.300Z,20.23
2016-09-19T00:34:02.597Z,20.29
2016-09-19T00:35:12.879Z,20.27
2016-09-19T00:36:22.860Z,20.25
2016-09-19T00:37:32.828Z,20.27
2016-09-19T00:38:43.105Z,20.22
2016-09-19T00:39:53.085Z,20.23
2016-09-19T00:41:03.371Z,20.18
2016-09-19T00:42:13.366Z,20.2
2016-09-19T00:43:23.654Z,20.19
2016-09-19T00:44:33.939Z,20.19
2016-09-19T00:45:44.243Z,20.19
2016-09-19T00:46:54.278Z,20.15
2016-09-19T00:48:04.242Z,20.11
2016-09-19T00:49:13.613Z,20.08
2016-09-19T00:50:23.585Z,20.04
2016-09-19T00:51:33.863Z,20.05
2016-09-19T00:52:44.145Z,20.01
2016-09-19T00:53:54.435Z,20.05
2016-09-19T00:55:04.412Z,20
2016-09-19T00:56:13.780Z,20.15
2016-09-19T00:57:24.081Z,20.04
2016-09-19T00:58:34.073Z,20.07
2016-09-19T00:59:44.068Z,20.01
2016-09-19T01:00:54.042Z,20.05
2016-09-19T01:02:04.351Z,20.08
2016-09-19T01:03:14.642Z,19.95
2016-09-19T01:04:24.930Z,20.1
2016-09-19T01:05:35.230Z,20.05
2016-09-19T01:06:45.509Z,20.11
2016-09-19T01:07:55.802Z,20.08
2016-09-19T01:09:06.123Z,20.05
2016-09-19T01:10:16.422Z,20.05
2016-09-19T01:11:26.708Z,20
2016-09-19T01:12:36.994Z,20.02
2016-09-19T01:13:46.966Z,19.98
2016-09-19T01:14:57.257Z,20.01
2016-09-19T01:16:07.550Z,20.05
2016-09-19T01:17:17.850Z,20
2016-09-19T01:18:28.158Z,20.05
2016-09-19T01:19:38.144Z,20.08
2016-09-19T01:20:48.126Z,19.98
2016-09-19T01:21:57.488Z,20.12
2016-09-19T01:23:07.468Z,20.05
2016-09-19T01:24:17.772Z,20.15
2016-09-19T01:25:27.449Z,20.07
2016-09-19T01:26:37.121Z,20.11
2016-09-19T01:27:46.795Z,20.12
2016-09-19T01:28:56.774Z,20.05
2016-09-19T01:30:07.069Z,20.02
2016-09-19T01:31:17.359Z,20.04
2016-09-19T01:32:27.657Z,20.08
2016-09-19T01:33:37.347Z,20.11
2016-09-19T01:34:47.345Z,20.11
2016-09-19T01:35:57.630Z,20.01
2016-09-19T01:37:07.928Z,20.02
2016-09-19T01:38:17.599Z,20.01
2016-09-19T01:39:27.572Z,20.01
2016-09-19T01:40:37.542Z,20
2016-09-19T01:41:47.225Z,20
2016-09-19T01:42:57.216Z,20.04
2016-09-19T01:44:07.199Z,20
2016-09-19T01:45:17.179Z,20.01
2016-09-19T01:46:27.150Z,19.98
2016-09-19T01:47:37.130Z,20.1
2016-09-19T01:48:47.115Z,20.05
2016-09-19T01:49:57.097Z,20.1
2016-09-19T01:51:07.085Z,20.05
2016-09-19T01:52:17.066Z,20.15
2016-09-19T01:53:27.335Z,20.04
2016-09-19T01:54:37.311Z,20.04
2016-09-19T01:55:47.593Z,20.01
2016-09-19T01:56:57.582Z,20.02
2016-09-19T01:58:07.864Z,20.07
2016-09-19T01:59:17.846Z,20.07
2016-09-19T02:00:27.523Z,20.02
2016-09-19T02:01:37.509Z,20.11
2016-09-19T02:02:47.805Z,20.02
2016-09-19T02:03:57.792Z,20.01
2016-09-19T02:05:07.768Z,20.05
2016-09-19T02:06:18.059Z,20.04
2016-09-19T02:07:28.337Z,20.11
2016-09-19T02:08:38.635Z,20.02
2016-09-19T02:09:48.612Z,19.95
2016-09-19T02:10:58.904Z,19.97
2016-09-19T02:12:08.915Z,20.01
2016-09-19T02:13:18.900Z,19.98
2016-09-19T02:14:28.893Z,20.02
2016-09-19T02:15:38.550Z,20.01
2016-09-19T02:16:48.832Z,20
2016-09-19T02:17:58.814Z,19.93
2016-09-19T02:19:08.486Z,20
2016-09-19T02:20:18.799Z,20.02
2016-09-19T02:21:28.777Z,20.11
2016-09-19T02:22:39.069Z,20.02
2016-09-19T02:23:49.363Z,20.07
2016-09-19T02:24:59.348Z,20.05
2016-09-19T02:26:09.323Z,20.05
2016-09-19T02:27:18.708Z,20.07
2016-09-19T02:28:29.003Z,19.98
2016-09-19T02:29:39.309Z,20.08
2016-09-19T02:30:49.582Z,20.05
2016-09-19T02:31:59.557Z,20.01
2016-09-19T02:33:09.236Z,20.05
2016-09-19T02:34:19.221Z,20
2016-09-19T02:35:29.199Z,20.04
2016-09-19T02:36:39.478Z,20.07
2016-09-19T02:37:49.457Z,20.11
2016-09-19T02:38:59.749Z,20.16
2016-09-19T02:40:10.034Z,20.12
2016-09-19T02:41:20.027Z,20.15
2016-09-19T02:42:30.318Z,20.25
2016-09-19T02:43:40.300Z,20.2
2016-09-19T02:44:50.278Z,20.15
2016-09-19T02:46:00.261Z,20.1
2016-09-19T02:47:10.237Z,20.11
2016-09-19T02:48:20.221Z,20.08
2016-09-19T02:49:30.508Z,20.16
2016-09-19T02:50:40.795Z,20.18
2016-09-19T02:51:50.459Z,20.04
2016-09-19T02:53:00.447Z,20
2016-09-19T02:54:10.430Z,20.07
2016-09-19T02:55:20.718Z,20.02
2016-09-19T02:56:30.698Z,19.98
2016-09-19T02:57:40.675Z,20.04
2016-09-19T02:58:50.952Z,20.04
2016-09-19T03:00:00.933Z,20
2016-09-19T03:32:30.929Z,17.17
2016-09-19T03:33:41.188Z,17.1
2016-09-19T03:34:51.456Z,17.12
2016-09-19T03:36:01.728Z,17.2
2016-09-19T03:37:12.018Z,17.22
2016-09-19T03:38:21.701Z,17.31
2016-09-19T03:39:31.673Z,17.35
2016-09-19T03:40:41.967Z,17.49
2016-09-19T03:41:52.236Z,17.55
2016-09-19T03:43:02.512Z,17.65
2016-09-19T03:44:12.804Z,17.76
2016-09-19T03:45:23.089Z,17.9
2016-09-19T03:46:32.775Z,18.01
2016-09-19T03:47:42.449Z,18.16
2016-09-19T03:48:52.480Z,18.11
2016-09-19T03:50:02.771Z,18.19
2016-09-19T03:51:13.053Z,18.32
2016-09-19T03:52:22.725Z,18.42
2016-09-19T03:53:33.023Z,18.5
2016-09-19T03:54:43.302Z,18.51
2016-09-19T03:55:53.286Z,18.49
2016-09-19T03:57:03.572Z,18.51
2016-09-19T03:58:13.248Z,18.53
2016-09-19T03:59:23.235Z,18.57
2016-09-19T04:00:33.225Z,18.65
2016-09-19T04:01:43.509Z,18.68
2016-09-19T04:02:53.795Z,18.76
2016-09-19T04:04:04.071Z,18.78
2016-09-19T04:05:14.358Z,18.78
2016-09-19T04:06:23.709Z,18.91
2016-09-19T04:07:34.007Z,18.86
2016-09-19T04:08:44.285Z,18.81
2016-09-19T04:09:54.560Z,18.89
2016-09-19T04:11:04.846Z,18.93
2016-09-19T04:12:14.819Z,18.84
2016-09-19T04:13:25.097Z,18.89
2016-09-19T04:14:35.077Z,18.86
2016-09-19T04:15:45.059Z,18.84
2016-09-19T04:16:55.041Z,18.91
2016-09-19T04:18:05.333Z,18.87
2016-09-19T04:19:15.008Z,18.91
2016-09-19T04:20:25.291Z,18.81
2016-09-19T04:21:35.272Z,18.9
2016-09-19T04:22:44.935Z,18.91
2016-09-19T04:23:54.910Z,18.9
2016-09-19T04:25:05.194Z,18.89
2016-09-19T04:26:14.549Z,18.86
2016-09-19T04:27:24.531Z,18.81
2016-09-19T04:28:34.507Z,18.89
2016-09-19T04:29:44.785Z,18.86
2016-09-19T04:30:54.770Z,18.86
2016-09-19T04:32:04.766Z,18.79
2016-09-19T04:33:14.748Z,18.82
2016-09-19T04:34:24.735Z,18.79
2016-09-19T04:35:35.030Z,18.79
2016-09-19T04:36:45.309Z,18.81
2016-09-19T04:37:55.297Z,18.79
2016-09-19T04:39:05.282Z,18.81
2016-09-19T04:40:15.260Z,18.86
2016-09-19T04:41:25.235Z,18.74
2016-09-19T04:42:35.538Z,18.78
2016-09-19T04:43:45.819Z,18.76
2016-09-19T04:44:55.792Z,18.81
2016-09-19T04:46:05.477Z,18.78
2016-09-19T04:47:15.455Z,18.81
2016-09-19T04:48:25.430Z,18.78
2016-09-19T04:49:35.774Z,18.82
2016-09-19T04:50:46.078Z,18.81
2016-09-19T04:51:56.362Z,18.81
2016-09-19T04:53:06.052Z,18.79
2016-09-19T04:54:16.330Z,18.76
2016-09-19T04:55:26.315Z,18.78
2016-09-19T04:56:36.301Z,18.79
2016-09-19T04:57:46.275Z,18.79
2016-09-19T04:58:56.565Z,18.78
2016-09-19T05:00:06.838Z,18.87
2016-09-19T05:01:16.823Z,18.87
2016-09-19T05:02:27.105Z,18.86
2016-09-19T05:03:37.108Z,18.82
2016-09-19T05:04:47.380Z,18.87
2016-09-19T05:05:57.055Z,18.89
2016-09-19T05:07:07.036Z,18.86
2016-09-19T05:08:17.324Z,18.9
2016-09-19T05:09:27.293Z,18.89
2016-09-19T05:10:37.587Z,18.9
2016-09-19T05:11:47.899Z,18.91
2016-09-19T05:12:57.872Z,18.91
2016-09-19T05:14:07.887Z,18.87
2016-09-19T05:15:18.181Z,18.96
2016-09-19T05:16:28.463Z,18.97
2016-09-19T05:17:38.433Z,18.97
2016-09-19T05:18:48.415Z,19.06
2016-09-19T05:19:58.711Z,18.94
2016-09-19T05:21:08.718Z,19.02
2016-09-19T05:22:18.712Z,18.94
2016-09-19T05:23:28.686Z,18.96
2016-09-19T05:24:38.969Z,19.05
2016-09-19T05:25:48.330Z,18.94
2016-09-19T05:26:58.308Z,18.96
2016-09-19T05:28:08.309Z,19.02
2016-09-19T05:29:18.288Z,19.07
2016-09-19T05:30:28.286Z,19
2016-09-19T05:31:38.283Z,18.94
2016-09-19T05:32:48.577Z,19.07
2016-09-19T05:33:58.561Z,19.07
2016-09-19T05:35:08.243Z,19.1
2016-09-19T05:36:17.922Z,19.12
2016-09-19T05:37:28.213Z,19.17
2016-09-19T05:38:38.499Z,19.17
2016-09-19T05:39:48.192Z,19.27
2016-09-19T05:40:58.172Z,19.2
2016-09-19T05:42:08.162Z,19.27
2016-09-19T05:43:17.537Z,19.37
2016-09-19T05:44:27.841Z,19.37
2016-09-19T05:45:37.533Z,19.46
2016-09-19T05:46:47.810Z,19.55
2016-09-19T05:47:58.102Z,19.5
2016-09-19T05:49:08.085Z,19.5
2016-09-19T05:50:17.471Z,19.56
2016-09-19T05:51:27.459Z,19.64
2016-09-19T05:52:36.818Z,19.68
2016-09-19T05:53:46.496Z,19.63
2016-09-19T05:54:56.782Z,19.72
2016-09-19T05:56:06.759Z,19.74
2016-09-19T05:57:16.445Z,19.87
2016-09-19T05:58:26.728Z,19.9
2016-09-19T05:59:37.004Z,19.92
2016-09-19T06:00:46.672Z,20.01
2016-09-19T06:01:56.346Z,19.98
2016-09-19T06:03:06.620Z,20.05
2016-09-19T06:04:16.916Z,20.19
2016-09-19T06:05:26.903Z,20.19
2016-09-19T06:06:36.879Z,20.37
2016-09-19T06:07:46.851Z,20.4
2016-09-19T06:08:56.833Z,20.54
2016-09-19T06:10:07.110Z,20.63
2016-09-19T06:11:17.401Z,20.71
2016-09-19T06:12:27.387Z,20.85
2016-09-19T06:13:37.380Z,21.01
2016-09-19T06:14:47.665Z,21.12
2016-09-19T06:15:57.669Z,21.16
2016-09-19T06:17:07.948Z,21.27
2016-09-19T06:18:17.925Z,21.21
2016-09-19T06:19:27.913Z,21.34
2016-09-19T06:20:37.904Z,21.43
2016-09-19T06:21:47.894Z,21.4
2016-09-19T06:22:57.555Z,21.41
2016-09-19T06:24:07.524Z,21.51
2016-09-19T06:25:17.816Z,21.53
2016-09-19T06:26:28.102Z,21.52
2016-09-19T06:27:38.385Z,21.56
2016-09-19T06:28:48.375Z,21.8
2016-09-19T06:29:58.353Z,21.85
2016-09-19T06:31:08.023Z,21.83
2016-09-19T06:32:17.997Z,21.86
2016-09-19T06:33:27.977Z,21.99
2016-09-19T06:34:37.650Z,21.96
2016-09-19T06:35:47.628Z,21.94
2016-09-19T06:36:57.302Z,21.97
2016-09-19T06:38:07.599Z,21.99
2016-09-19T06:39:17.589Z,21.93
2016-09-19T06:40:26.957Z,21.97
2016-09-19T06:41:37.249Z,22.04
2016-09-19T06:42:47.555Z,22.12
2016-09-19T06:43:57.556Z,22.14
2016-09-19T06:45:07.849Z,22.12
2016-09-19T06:46:17.863Z,22.15
2016-09-19T06:47:28.153Z,22.26
2016-09-19T06:48:38.458Z,22.15
2016-09-19T06:49:48.127Z,22.2
2016-09-19T06:50:58.412Z,22.22
2016-09-19T06:52:08.083Z,22.36
2016-09-19T06:53:17.752Z,22.24
2016-09-19T06:54:28.044Z,22.07
2016-09-19T06:55:37.413Z,21.99
2016-09-19T06:56:47.405Z,21.94
2016-09-19T06:57:57.387Z,21.83
2016-09-19T06:59:07.062Z,21.78
2016-09-19T07:00:16.740Z,21.7
2016-09-19T07:01:26.732Z,21.59
2016-09-19T07:02:36.729Z,21.61
2016-09-19T07:03:46.406Z,21.73
2016-09-19T07:04:56.707Z,21.82
2016-09-19T07:06:07.004Z,22.09
2016-09-19T07:07:17.333Z,22.14
2016-09-19T07:08:27.637Z,22.11
2016-09-19T07:09:37.619Z,22.16
2016-09-19T07:10:47.602Z,22.11
2016-09-19T07:11:57.593Z,21.99
2016-09-19T07:13:07.570Z,21.97
2016-09-19T07:14:17.856Z,21.96
2016-09-19T07:15:27.828Z,22.04
2016-09-19T07:16:37.526Z,22.14
2016-09-19T07:17:47.509Z,22.23
2016-09-19T07:18:57.488Z,22.42
2016-09-19T07:20:07.471Z,22.49
2016-09-19T07:21:17.485Z,22.61
2016-09-19T07:22:27.768Z,22.7
2016-09-19T07:23:37.747Z,22.78
2016-09-19T07:24:48.051Z,22.91
2016-09-19T07:25:58.048Z,23
2016-09-19T07:27:08.341Z,22.94
2016-09-19T07:28:18.635Z,22.71
2016-09-19T07:29:28.916Z,22.55
2016-09-19T07:30:38.898Z,22.46
2016-09-19T07:31:49.186Z,22.49
2016-09-19T07:32:59.171Z,22.57
2016-09-19T07:34:09.154Z,22.66
2016-09-19T07:35:19.145Z,22.71
2016-09-19T07:36:29.444Z,22.64
2016-09-19T07:37:39.741Z,22.7
2016-09-19T07:38:49.715Z,22.71
2016-09-19T07:39:59.711Z,22.69
2016-09-19T07:41:09.383Z,22.59
2016-09-19T07:42:19.375Z,22.51
2016-09-19T07:43:29.667Z,22.61
2016-09-19T07:44:39.659Z,22.79
2016-09-19T07:45:49.965Z,22.94
2016-09-19T07:47:00.258Z,23.26
2016-09-19T07:48:09.628Z,23.52
2016-09-19T07:49:19.613Z,23.78
2016-09-19T07:50:28.986Z,24
2016-09-19T07:51:39.298Z,24.03
2016-09-19T07:52:49.631Z,24.09
2016-09-19T07:53:59.607Z,24.04
2016-09-19T07:55:09.609Z,23.93
2016-09-19T07:56:19.595Z,23.6
2016-09-19T07:57:29.916Z,23.25
2016-09-19T07:58:40.215Z,23.03
2016-09-19T07:59:49.895Z,22.85
2016-09-19T08:01:00.186Z,22.78
2016-09-19T08:02:10.171Z,22.67
2016-09-19T08:03:20.470Z,22.69
2016-09-19T08:04:30.457Z,22.81
2016-09-19T08:05:40.450Z,22.99
2016-09-19T08:06:50.436Z,23.4
2016-09-19T08:08:00.111Z,23.56
2016-09-19T08:09:10.409Z,23.77
2016-09-19T08:10:20.395Z,24.14
2016-09-19T08:11:30.383Z,24.52
2016-09-19T08:12:40.674Z,24.86
2016-09-19T08:13:50.696Z,25.05
2016-09-19T08:15:00.992Z,24.87
2016-09-19T08:16:10.984Z,24.7
2016-09-19T08:17:20.955Z,24.56
2016-09-19T08:18:31.245Z,24.49
2016-09-19T08:19:41.219Z,24.4
2016-09-19T08:20:50.902Z,24.14
2016-09-19T08:22:01.198Z,24.17
2016-09-19T08:23:10.559Z,24.15
2016-09-19T08:24:20.231Z,24.33
2016-09-19T08:25:30.213Z,24.54
2016-09-19T08:26:40.509Z,24.67
2016-09-19T08:27:50.798Z,24.82
2016-09-19T08:29:01.093Z,25.09
2016-09-19T08:30:11.383Z,25.04
2016-09-19T08:31:21.358Z,25.05
2016-09-19T08:32:31.046Z,25.11
2016-09-19T08:33:40.124Z,25.17
2016-09-19T08:34:50.412Z,25.12
2016-09-19T08:36:00.697Z,25.44
2016-09-19T08:37:10.404Z,25.63
2016-09-19T08:38:20.702Z,25.91
2016-09-19T08:39:30.999Z,26.26
2016-09-19T08:40:40.702Z,26.68
2016-09-19T08:41:51.000Z,27.08
2016-09-19T08:43:00.679Z,27.57
2016-09-19T08:44:10.660Z,27.49
2016-09-19T08:45:20.961Z,27.34
2016-09-19T08:46:30.969Z,27.36
2016-09-19T08:47:41.265Z,27.41
2016-09-19T08:48:51.563Z,27.68
2016-09-19T08:50:01.554Z,27.74
2016-09-19T08:51:11.524Z,27.86
2016-09-19T08:52:21.251Z,27.91
2016-09-19T08:53:31.244Z,27.99
2016-09-19T08:54:40.920Z,27.72
2016-09-19T08:55:51.232Z,27.81
2016-09-19T08:57:01.531Z,27.55
2016-09-19T08:58:11.554Z,27.61
2016-09-19T08:59:21.854Z,27.43
2016-09-19T09:00:31.544Z,27.49
2016-09-19T09:01:41.831Z,27.61
2016-09-19T09:02:51.502Z,27.91
2016-09-19T09:04:01.495Z,28.27
2016-09-19T09:05:11.785Z,28.35
2016-09-19T09:06:22.488Z,28.55
2016-09-19T09:07:32.775Z,28.83
2016-09-19T09:08:42.781Z,29.01
2016-09-19T09:09:52.474Z,28.91
2016-09-19T09:11:02.469Z,28.9
2016-09-19T09:12:12.146Z,28.91
2016-09-19T09:13:21.826Z,29.11
2016-09-19T09:14:32.121Z,29.32
2016-09-19T09:15:42.420Z,29.11
2016-09-19T09:16:52.420Z,28.86
2016-09-19T09:18:02.415Z,28.48
2016-09-19T09:19:11.782Z,28.46
2016-09-19T09:20:21.774Z,28.17
2016-09-19T09:21:31.754Z,28.06
2016-09-19T09:22:41.748Z,28.17
2016-09-19T09:23:51.737Z,28.09
2016-09-19T09:25:01.425Z,28.31
2016-09-19T09:26:11.401Z,28.45
2016-09-19T09:27:21.375Z,28.55
2016-09-19T09:28:31.356Z,28.43
2016-09-19T09:29:41.659Z,28.41
2016-09-19T09:30:51.654Z,28.85
2016-09-19T09:32:01.957Z,29.08
2016-09-19T09:33:12.248Z,29.17
2016-09-19T09:34:22.226Z,29.03
2016-09-19T09:35:32.238Z,28.97
2016-09-19T09:36:42.218Z,29.02
2016-09-19T09:37:52.515Z,28.94
2016-09-19T09:39:02.817Z,29.17
2016-09-19T09:40:13.108Z,28.88
2016-09-19T09:41:22.795Z,28.67
2016-09-19T09:42:33.102Z,28.39
2016-09-19T09:43:43.092Z,28.53
2016-09-19T09:44:53.084Z,28.85
2016-09-19T09:46:03.398Z,29.02
2016-09-19T09:47:12.457Z,28.86
2016-09-19T09:48:22.126Z,28.7
2016-09-19T09:49:32.117Z,28.23
2016-09-19T09:50:42.347Z,28.11
2016-09-19T09:51:52.659Z,28.03
2016-09-19T09:53:02.641Z,27.99
2016-09-19T09:54:12.643Z,28.16
2016-09-19T09:55:22.571Z,28.67
2016-09-19T09:56:32.883Z,28.86
2016-09-19T09:57:42.570Z,28.65
2016-09-19T09:58:52.865Z,28.28
2016-09-19T10:00:03.158Z,28.06
2016-09-19T10:01:13.464Z,27.76
2016-09-19T10:02:23.446Z,27.55
2016-09-19T10:03:33.428Z,27.42
2016-09-19T10:04:42.485Z,27.52
2016-09-19T10:05:52.477Z,27.38
2016-09-19T10:07:02.159Z,27.28
2016-09-19T10:08:12.154Z,27.12
2016-09-19T10:09:21.838Z,27.15
2016-09-19T10:10:30.908Z,27.28
2016-09-19T10:11:40.895Z,27.16
2016-09-19T10:12:50.258Z,27.09
2016-09-19T10:14:00.548Z,27.05
2016-09-19T10:15:10.534Z,26.99
2016-09-19T10:16:20.211Z,27
2016-09-19T10:17:30.209Z,26.86
2016-09-19T10:18:40.194Z,26.72
2016-09-19T10:19:50.496Z,26.3
2016-09-19T10:21:00.183Z,26
2016-09-19T10:22:10.157Z,25.71
2016-09-19T10:23:20.142Z,25.54
2016-09-19T10:24:29.820Z,25.44
2016-09-19T10:25:39.516Z,25.3
2016-09-19T10:26:49.505Z,25.27
2016-09-19T10:27:59.806Z,25.17
2016-09-19T10:29:09.805Z,25.11
2016-09-19T10:30:19.501Z,25.3
2016-09-19T10:31:29.493Z,25.27
2016-09-19T10:32:39.490Z,25.54
2016-09-19T10:33:49.168Z,25.59
2016-09-19T10:34:58.849Z,25.79
2016-09-19T10:36:09.147Z,26.01
2016-09-19T10:37:18.821Z,26.09
2016-09-19T10:38:28.509Z,26.09
2016-09-19T10:39:38.805Z,26.06
2016-09-19T10:40:48.493Z,26.15
2016-09-19T10:41:58.779Z,26.27
2016-09-19T10:43:08.762Z,26.34
2016-09-19T10:44:18.767Z,26.3
2016-09-19T10:45:29.069Z,26.24
2016-09-19T10:46:39.373Z,26.23
2016-09-19T10:47:49.361Z,26.16
2016-09-19T10:48:59.364Z,26.16
2016-09-19T10:50:09.347Z,26.06
2016-09-19T10:51:19.668Z,25.85
2016-09-19T10:52:29.959Z,25.6
2016-09-19T10:53:40.263Z,25.59
2016-09-19T10:54:49.941Z,25.59
2016-09-19T10:55:59.909Z,25.59
2016-09-19T10:57:10.200Z,25.6
2016-09-19T10:58:19.874Z,25.69
2016-09-19T10:59:29.560Z,25.54
2016-09-19T11:00:39.847Z,25.52
2016-09-19T11:01:49.233Z,25.69
2016-09-19T11:02:59.228Z,25.86
2016-09-19T11:04:08.916Z,25.89
2016-09-19T11:05:18.933Z,26.24
2016-09-19T11:06:29.248Z,26.61
2016-09-19T11:07:39.549Z,27.15
2016-09-19T11:08:49.853Z,27.53
2016-09-19T11:09:59.873Z,27.84
2016-09-19T11:11:09.883Z,27.99
2016-09-19T11:12:19.563Z,28.18
2016-09-19T11:13:29.582Z,28.14
2016-09-19T11:14:39.575Z,28.09
2016-09-19T11:15:49.564Z,28.01
2016-09-19T11:16:59.857Z,28.12
2016-09-19T11:18:09.854Z,28.26
2016-09-19T11:19:19.841Z,28.68
2016-09-19T11:20:30.139Z,28.8
2016-09-19T11:21:39.820Z,29.02
2016-09-19T11:22:49.496Z,28.92
2016-09-19T11:23:59.492Z,28.98
2016-09-19T11:25:09.173Z,28.8
2016-09-19T11:26:19.496Z,28.63
2016-09-19T11:27:28.864Z,28.82
2016-09-19T11:28:39.183Z,28.73
2016-09-19T11:29:49.500Z,28.92
2016-09-19T11:30:59.482Z,28.88
2016-09-19T11:32:09.492Z,29.45
2016-09-19T11:33:19.491Z,29.87
2016-09-19T11:34:29.807Z,30.29
2016-09-19T11:35:39.489Z,30.48
2016-09-19T11:36:49.487Z,30.24
2016-09-19T11:37:59.788Z,30.26
2016-09-19T11:39:09.819Z,30.07
2016-09-19T11:40:20.127Z,30.26
2016-09-19T11:41:29.798Z,30.09
2016-09-19T11:42:40.091Z,29.97
2016-09-19T11:43:50.076Z,29.88
2016-09-19T11:45:00.369Z,30.02
2016-09-19T11:46:10.672Z,29.91
2016-09-19T11:47:20.048Z,29.65
2016-09-19T11:49:39.350Z,29.45
2016-09-19T11:50:49.670Z,29.47
2016-09-19T11:51:59.653Z,29.42
2016-09-19T11:53:09.965Z,29.4
2016-09-19T11:54:19.980Z,29.72
2016-09-19T11:55:29.670Z,29.67
2016-09-19T11:56:39.661Z,29.73
2016-09-19T11:57:49.978Z,29.55
2016-09-19T11:59:00.278Z,29.51
2016-09-19T12:00:10.560Z,29.65
2016-09-19T12:01:20.250Z,29.67
2016-09-19T12:02:30.274Z,29.08
2016-09-19T12:03:40.257Z,28.67
2016-09-19T12:04:49.934Z,28.28
2016-09-19T12:05:59.945Z,28.53
2016-09-19T12:07:09.935Z,28.53
2016-09-19T12:08:19.913Z,28.64
2016-09-19T12:09:29.899Z,28.7
2016-09-19T12:10:39.887Z,28.79
2016-09-19T12:11:49.872Z,28.88
2016-09-19T12:12:59.870Z,29.14
2016-09-19T12:14:09.861Z,29.21
2016-09-19T12:15:19.843Z,29.2
2016-09-19T12:16:29.834Z,28.97
2016-09-19T12:17:40.141Z,29.02
2016-09-19T12:18:49.808Z,29.08
2016-09-19T12:19:59.815Z,29.18
2016-09-19T12:21:10.118Z,29.2
2016-09-19T12:22:20.424Z,29.29
2016-09-19T12:23:30.417Z,29.5
2016-09-19T12:24:40.735Z,29.43
2016-09-19T12:25:50.735Z,29.57
2016-09-19T12:27:00.714Z,29.55
2016-09-19T12:28:10.093Z,29.47
2016-09-19T12:29:19.774Z,29.5
2016-09-19T12:30:29.766Z,29.29
2016-09-19T12:31:40.067Z,29.28
2016-09-19T12:32:50.380Z,29.23
2016-09-19T12:34:00.372Z,29.29
2016-09-19T12:35:10.368Z,29.39
2016-09-19T12:36:20.380Z,29.35
2016-09-19T12:37:30.380Z,29.32
2016-09-19T12:38:40.681Z,29.54
2016-09-19T12:39:50.969Z,29.72
2016-09-19T12:41:00.957Z,29.85
2016-09-19T12:42:10.942Z,30.09
2016-09-19T12:43:20.934Z,30.29
2016-09-19T12:44:30.935Z,30.09
2016-09-19T12:45:40.924Z,30.1
2016-09-19T12:46:51.248Z,30.18
2016-09-19T12:48:01.246Z,29.66
2016-09-19T12:49:11.538Z,29.48
2016-09-19T12:50:21.210Z,29.77
2016-09-19T12:51:31.506Z,29.94
2016-09-19T12:52:41.189Z,30.1
2016-09-19T12:53:51.201Z,29.95
2016-09-19T12:55:01.228Z,29.65
2016-09-19T12:56:11.538Z,29.57
2016-09-19T12:57:21.521Z,29.43
2016-09-19T12:58:31.516Z,29.23
2016-09-19T12:59:41.808Z,29.02
2016-09-19T13:00:51.790Z,28.98
2016-09-19T13:02:02.081Z,28.97
2016-09-19T13:03:12.084Z,28.97
2016-09-19T13:04:22.084Z,29.24
2016-09-19T13:05:32.082Z,29.02
2016-09-19T13:06:42.085Z,28.76
2016-09-19T13:07:52.076Z,28.48
2016-09-19T13:09:02.381Z,28.2
2016-09-19T13:10:12.074Z,27.98
2016-09-19T13:11:22.385Z,27.66
2016-09-19T13:12:32.667Z,27.21
2016-09-19T13:13:42.968Z,26.94
2016-09-19T13:14:52.947Z,26.72
2016-09-19T13:16:03.243Z,26.61
2016-09-19T13:17:13.237Z,26.44
2016-09-19T13:18:23.223Z,26.42
2016-09-19T13:19:33.237Z,26.39
2016-09-19T13:20:43.566Z,26.35
2016-09-19T13:21:53.568Z,26.32
2016-09-19T13:23:03.572Z,26.37
2016-09-19T13:24:13.879Z,26.26
2016-09-19T13:25:23.570Z,26.15
2016-09-19T13:26:33.268Z,26.04
2016-09-19T13:27:43.575Z,25.82
2016-09-19T13:28:52.940Z,25.74
2016-09-19T13:30:02.932Z,25.59
2016-09-19T13:31:13.239Z,25.48
2016-09-19T13:32:23.223Z,25.44
2016-09-19T13:33:33.512Z,25.29
2016-09-19T13:34:43.514Z,25.11
2016-09-19T13:35:53.211Z,25
2016-09-19T13:37:03.200Z,24.92
2016-09-19T13:38:13.183Z,24.8
2016-09-19T13:39:23.476Z,24.67
2016-09-19T13:40:33.457Z,24.52
2016-09-19T13:41:43.448Z,24.44
2016-09-19T13:42:53.438Z,24.3
2016-09-19T13:44:03.420Z,24.3
2016-09-19T13:45:13.399Z,24.19
2016-09-19T13:46:23.371Z,24.09
2016-09-19T13:47:32.751Z,24.11
2016-09-19T13:48:43.033Z,24.07
2016-09-19T13:49:53.325Z,24.08
2016-09-19T13:51:03.309Z,24.07
2016-09-19T13:52:13.331Z,24.14
2016-09-19T13:53:23.335Z,24.29
2016-09-19T13:54:33.317Z,24.37
2016-09-19T13:55:43.623Z,24.32
2016-09-19T13:56:53.325Z,24.49
2016-09-19T13:58:02.997Z,24.51
2016-09-19T13:59:12.668Z,24.56
2016-09-19T14:00:22.351Z,24.55
2016-09-19T14:01:32.334Z,24.66
2016-09-19T14:02:42.325Z,24.69
2016-09-19T14:03:52.003Z,24.67
2016-09-19T14:05:01.964Z,24.59
2016-09-19T14:06:11.964Z,24.45
2016-09-19T14:07:21.635Z,24.44
2016-09-19T14:08:31.938Z,24.4
2016-09-19T14:09:41.929Z,24.45
2016-09-19T14:10:52.221Z,24.55
2016-09-19T14:12:01.902Z,24.75
2016-09-19T14:13:11.903Z,24.67
2016-09-19T14:14:22.206Z,24.74
2016-09-19T14:15:32.187Z,24.83
2016-09-19T14:16:41.554Z,24.92
2016-09-19T14:17:51.532Z,24.83
2016-09-19T14:19:01.543Z,24.89
2016-09-19T14:20:11.524Z,24.94
2016-09-19T14:21:21.515Z,24.77
2016-09-19T14:22:31.184Z,24.82
2016-09-19T14:23:41.190Z,24.87
2016-09-19T14:24:51.183Z,24.86
2016-09-19T14:26:01.469Z,25.05
2016-09-19T14:27:11.162Z,25.09
2016-09-19T14:28:20.857Z,25.3
2016-09-19T14:29:30.848Z,25.39
2016-09-19T14:30:40.872Z,25.41
2016-09-19T14:31:51.187Z,25.38
2016-09-19T14:33:01.184Z,25.42
2016-09-19T14:34:11.189Z,25.33
2016-09-19T14:35:21.497Z,25.27
2016-09-19T14:36:31.800Z,25.17
2016-09-19T14:37:41.182Z,25.19
2016-09-19T14:38:50.862Z,24.94
2016-09-19T14:40:01.155Z,24.85
2016-09-19T14:41:11.160Z,24.86
2016-09-19T14:42:21.484Z,24.89
2016-09-19T14:43:31.800Z,24.77
2016-09-19T14:44:42.100Z,24.75
2016-09-19T14:45:52.391Z,24.75
2016-09-19T14:47:02.076Z,24.61
2016-09-19T14:48:12.318Z,24.66
2016-09-19T14:49:22.545Z,24.56
2016-09-19T14:50:32.849Z,24.44
2016-09-19T14:51:43.151Z,24.33
2016-09-19T14:52:52.548Z,24.26
2016-09-19T14:54:02.233Z,24.18
2016-09-19T14:55:12.522Z,24.14
2016-09-19T14:56:22.832Z,24.15
2016-09-19T14:57:33.122Z,24.07
2016-09-19T14:58:43.431Z,23.99
2016-09-19T14:59:53.718Z,23.93
2016-09-19T15:01:03.696Z,23.9
2016-09-19T15:02:13.382Z,23.85
2016-09-19T15:03:23.677Z,23.7
2016-09-19T15:04:33.979Z,23.66
2016-09-19T15:05:43.966Z,23.59
2016-09-19T15:06:53.658Z,23.59
2016-09-19T15:08:03.335Z,23.62
2016-09-19T15:09:13.321Z,23.59
2016-09-19T15:10:23.306Z,23.6
2016-09-19T15:11:33.611Z,23.7
2016-09-19T15:12:43.929Z,23.71
2016-09-19T15:13:53.915Z,23.77
2016-09-19T15:15:03.598Z,23.67
2016-09-19T15:16:13.607Z,23.64
2016-09-19T15:17:22.974Z,23.57
2016-09-19T15:18:32.984Z,23.45
2016-09-19T15:19:42.362Z,23.41
2016-09-19T15:20:52.681Z,23.28
2016-09-19T15:22:02.985Z,23.18
2016-09-19T15:23:12.975Z,23.1
2016-09-19T15:24:22.664Z,23.06
2016-09-19T15:25:32.667Z,22.88
2016-09-19T15:26:42.962Z,22.88
2016-09-19T15:27:53.273Z,22.89
2016-09-19T15:29:03.266Z,22.81
2016-09-19T15:30:13.574Z,22.81
2016-09-19T15:31:23.565Z,22.67
2016-09-19T15:32:33.847Z,22.63
2016-09-19T15:33:44.166Z,22.52
2016-09-19T15:34:54.149Z,22.51
2016-09-19T15:36:04.151Z,22.44
2016-09-19T15:37:14.443Z,22.41
2016-09-19T15:38:24.736Z,22.44